createdAt,value
2019-06-01T00:00:26.745Z,5.97
2019-06-01T00:02:57.407Z,5.90
2019-06-01T00:05:28.131Z,10.03
2019-06-01T00:07:57.192Z,4.13
2019-06-01T00:10:32.177Z,4.80
2019-06-01T00:13:01.340Z,5.60
2019-06-01T00:18:17.800Z,4.60
2019-06-01T00:20:54.898Z,3.63
2019-06-01T00:23:24.103Z,5.57
2019-06-01T00:25:53.138Z,5.07
2019-06-01T00:28:23.498Z,3.57
2019-06-01T00:30:55.820Z,4.43
2019-06-01T00:33:26.009Z,5.93
2019-06-01T00:35:55.191Z,4.37
2019-06-01T00:38:27.309Z,6.53
2019-06-01T00:40:56.439Z,10.23
2019-06-01T00:43:26.562Z,4.63
2019-06-01T00:45:55.545Z,6.60
2019-06-01T00:48:25.641Z,6.73
2019-06-01T00:50:55.070Z,4.87
2019-06-01T00:53:25.389Z,7.60
2019-06-01T00:55:54.727Z,6.40
2019-06-01T00:58:26.095Z,4.33
2019-06-01T01:00:55.334Z,4.50
2019-06-01T01:03:54.451Z,5.30
2019-06-01T01:06:24.250Z,6.90
2019-06-01T01:08:55.238Z,5.43
2019-06-01T01:11:24.807Z,4.83
2019-06-01T01:13:57.332Z,7.13
2019-06-01T01:16:27.569Z,5.20
2019-06-01T01:18:56.681Z,4.70
2019-06-01T01:21:25.765Z,5.13
2019-06-01T01:24:00.667Z,5.90
2019-06-01T01:26:32.932Z,5.40
2019-06-01T01:29:02.163Z,5.83
2019-06-01T01:31:32.353Z,5.93
2019-06-01T01:34:01.522Z,4.57
2019-06-01T01:36:31.035Z,5.00
2019-06-01T01:39:00.298Z,6.53
2019-06-01T01:41:33.023Z,6.67
2019-06-01T01:44:02.406Z,6.80
2019-06-01T01:46:33.392Z,6.13
2019-06-01T01:49:02.670Z,6.07
2019-06-01T01:51:41.129Z,5.47
2019-06-01T01:54:10.414Z,4.60
2019-06-01T01:56:39.703Z,4.93
2019-06-01T01:59:11.023Z,6.00
2019-06-01T02:01:40.212Z,4.87
2019-06-01T02:04:14.146Z,4.53
2019-06-01T02:06:43.263Z,5.60
2019-06-01T02:09:14.014Z,4.47
2019-06-01T02:11:43.345Z,5.30
2019-06-01T02:16:51.917Z,4.77
2019-06-01T02:19:21.242Z,6.03
2019-06-01T02:21:50.610Z,4.63
2019-06-01T02:24:19.732Z,5.13
2019-06-01T02:26:49.012Z,8.73
2019-06-01T02:29:20.850Z,4.20
2019-06-01T02:31:56.536Z,5.23
2019-06-01T02:34:25.768Z,6.13
2019-06-01T02:36:58.386Z,5.07
2019-06-01T02:39:27.671Z,7.80
2019-06-01T02:41:56.833Z,7.50
2019-06-01T02:44:26.217Z,5.20
2019-06-01T02:46:59.331Z,5.53
2019-06-01T02:49:29.877Z,4.67
2019-06-01T02:51:59.288Z,6.77
2019-06-01T02:54:29.630Z,6.23
2019-06-01T02:57:00.133Z,5.27
2019-06-01T02:59:30.386Z,5.17
2019-06-01T03:02:06.950Z,6.00
2019-06-01T03:04:35.148Z,8.57
2019-06-01T03:07:07.038Z,5.60
2019-06-01T03:09:38.139Z,7.00
2019-06-01T03:12:09.028Z,5.77
2019-06-01T03:14:39.465Z,5.53
2019-06-01T03:17:12.148Z,5.50
2019-06-01T03:19:43.962Z,7.97
2019-06-01T03:22:15.292Z,6.20
2019-06-01T03:24:45.930Z,6.67
2019-06-01T03:27:17.532Z,5.67
2019-06-01T03:29:52.543Z,6.70
2019-06-01T03:32:35.362Z,5.60
2019-06-01T03:34:52.167Z,8.40
2019-06-01T03:37:21.279Z,7.43
2019-06-01T03:39:50.301Z,5.50
2019-06-01T03:42:19.687Z,6.67
2019-06-01T03:44:48.774Z,5.50
2019-06-01T03:47:17.895Z,5.80
2019-06-01T03:49:46.743Z,5.80
2019-06-01T03:52:15.805Z,6.57
2019-06-01T03:54:44.698Z,5.37
2019-06-01T03:57:13.675Z,5.63
2019-06-01T03:59:42.633Z,6.03
2019-06-01T04:02:11.513Z,6.73
2019-06-01T04:04:40.471Z,6.47
2019-06-01T04:07:10.482Z,5.37
2019-06-01T04:09:39.754Z,6.33
2019-06-01T04:12:09.754Z,6.23
2019-06-01T04:14:38.815Z,6.07
2019-06-01T04:17:08.159Z,5.30
2019-06-01T04:19:37.157Z,5.63
2019-06-01T04:22:08.009Z,5.60
2019-06-01T04:24:36.994Z,5.70
2019-06-01T04:27:06.158Z,7.50
2019-06-01T04:29:35.241Z,6.23
2019-06-01T04:32:04.504Z,7.63
2019-06-01T04:34:35.702Z,5.70
2019-06-01T04:37:05.189Z,5.70
2019-06-01T04:39:34.364Z,7.57
2019-06-01T04:42:03.498Z,5.90
2019-06-01T04:44:32.653Z,5.80
2019-06-01T04:47:01.538Z,10.03
2019-06-01T04:49:30.434Z,7.57
2019-06-01T04:51:59.416Z,8.27
2019-06-01T04:54:28.335Z,6.23
2019-06-01T04:56:57.361Z,7.37
2019-06-01T04:59:26.515Z,6.17
2019-06-01T05:01:55.447Z,5.97
2019-06-01T05:04:24.329Z,5.60
2019-06-01T05:06:53.429Z,6.63
2019-06-01T05:09:22.311Z,8.13
2019-06-01T05:11:51.338Z,6.03
2019-06-01T05:14:20.371Z,8.07
2019-06-01T05:16:49.278Z,5.83
2019-06-01T05:19:18.233Z,10.60
2019-06-01T05:21:47.151Z,7.30
2019-06-01T05:24:17.128Z,5.90
2019-06-01T05:26:46.328Z,6.57
2019-06-01T05:29:15.677Z,7.27
2019-06-01T05:31:45.075Z,6.43
2019-06-01T05:34:13.935Z,5.60
2019-06-01T05:36:42.857Z,6.20
2019-06-01T05:39:12.315Z,9.03
2019-06-01T05:41:41.627Z,5.80
2019-06-01T05:44:10.779Z,6.10
2019-06-01T05:46:39.889Z,9.80
2019-06-01T05:49:11.614Z,6.73
2019-06-01T05:51:39.674Z,5.83
2019-06-01T05:54:08.588Z,6.07
2019-06-01T05:56:37.619Z,5.50
2019-06-01T05:59:06.875Z,7.53
2019-06-01T06:01:35.725Z,5.13
2019-06-01T06:04:04.815Z,5.00
2019-06-01T06:06:33.759Z,5.67
2019-06-01T06:09:02.958Z,9.93
2019-06-01T06:11:31.862Z,5.50
2019-06-01T06:14:01.188Z,6.60
2019-06-01T06:16:30.603Z,7.00
2019-06-01T06:18:59.527Z,7.57
2019-06-01T06:21:28.542Z,6.10
2019-06-01T06:23:57.516Z,7.50
2019-06-01T06:26:26.576Z,8.60
2019-06-01T06:28:56.143Z,6.80
2019-06-01T06:31:25.222Z,5.93
2019-06-01T06:33:57.031Z,5.83
2019-06-01T06:36:24.794Z,6.63
2019-06-01T06:38:53.607Z,5.57
2019-06-01T06:41:22.808Z,8.23
2019-06-01T06:43:51.889Z,7.33
2019-06-01T06:46:20.882Z,7.60
2019-06-01T06:48:49.802Z,6.17
2019-06-01T06:51:19.311Z,5.70
2019-06-01T06:53:48.434Z,6.85
2019-06-01T06:56:17.878Z,5.85
2019-06-01T06:58:46.997Z,9.33
2019-06-01T07:01:16.969Z,6.85
2019-06-01T07:03:45.887Z,5.80
2019-06-01T07:06:14.751Z,8.20
2019-06-01T07:08:43.763Z,5.83
2019-06-01T07:11:12.690Z,7.08
2019-06-01T07:13:41.831Z,4.87
2019-06-01T07:16:10.820Z,5.60
2019-06-01T07:18:39.752Z,5.78
2019-06-01T07:21:08.790Z,7.35
2019-06-01T07:23:37.741Z,9.25
2019-06-01T07:26:06.726Z,6.58
2019-06-01T07:28:35.555Z,5.08
2019-06-01T07:31:04.899Z,6.83
2019-06-01T07:33:33.750Z,5.72
2019-06-01T07:36:02.800Z,4.60
2019-06-01T07:38:33.160Z,6.30
2019-06-01T07:41:02.058Z,6.25
2019-06-01T07:43:30.989Z,4.97
2019-06-01T07:45:59.876Z,7.67
2019-06-01T07:48:29.176Z,7.12
2019-06-01T07:50:58.312Z,7.25
2019-06-01T07:53:27.467Z,6.20
2019-06-01T07:55:57.122Z,5.25
2019-06-01T07:58:26.778Z,6.60
2019-06-01T08:00:55.860Z,3.60
2019-06-01T08:03:28.410Z,5.40
2019-06-01T08:05:55.268Z,7.12
2019-06-01T08:08:25.251Z,3.47
2019-06-01T08:10:54.377Z,3.67
2019-06-01T08:13:23.492Z,6.72
2019-06-01T08:15:52.330Z,4.47
2019-06-01T08:18:21.916Z,4.92
2019-06-01T08:20:50.946Z,7.28
2019-06-01T08:23:19.857Z,4.45
2019-06-01T08:25:48.868Z,3.25
2019-06-01T08:28:18.159Z,5.05
2019-06-01T08:30:47.001Z,4.05
2019-06-01T08:33:16.031Z,2.42
2019-06-01T08:35:44.851Z,2.92
2019-06-01T08:38:13.846Z,1.80
2019-06-01T08:40:42.683Z,2.50
2019-06-01T08:43:11.565Z,4.17
2019-06-01T08:45:40.397Z,2.67
2019-06-01T08:48:09.309Z,2.37
2019-06-01T08:50:38.272Z,2.12
2019-06-01T08:53:07.232Z,4.05
2019-06-01T08:55:36.607Z,1.72
2019-06-01T08:58:05.671Z,3.75
2019-06-01T09:00:34.811Z,2.72
2019-06-01T09:03:03.756Z,1.52
2019-06-01T09:05:33.155Z,5.00
2019-06-01T09:08:02.226Z,2.20
2019-06-01T09:10:31.495Z,1.47
2019-06-01T09:13:00.571Z,1.40
2019-06-01T09:15:29.812Z,1.77
2019-06-01T09:17:58.615Z,1.70
2019-06-01T09:20:27.550Z,2.77
2019-06-01T09:22:56.473Z,2.75
2019-06-01T09:25:25.643Z,2.25
2019-06-01T09:27:54.564Z,2.20
2019-06-01T09:30:23.861Z,1.92
2019-06-01T09:32:52.645Z,2.98
2019-06-01T09:35:21.571Z,2.50
2019-06-01T09:37:50.420Z,2.30
2019-06-01T09:40:19.527Z,4.22
2019-06-01T09:42:48.549Z,1.85
2019-06-01T09:45:17.765Z,3.87
2019-06-01T09:47:47.239Z,2.35
2019-06-01T09:50:16.558Z,4.08
2019-06-01T09:52:45.482Z,2.25
2019-06-01T09:55:15.042Z,2.70
2019-06-01T09:57:43.938Z,3.60
2019-06-01T10:00:13.940Z,2.30
2019-06-01T10:02:43.434Z,5.12
2019-06-01T10:05:12.883Z,2.52
2019-06-01T10:07:41.786Z,5.08
2019-06-01T10:10:11.338Z,3.87
2019-06-01T10:12:40.311Z,1.90
2019-06-01T10:15:09.646Z,1.90
2019-06-01T10:17:39.158Z,3.25
2019-06-01T10:20:08.485Z,3.77
2019-06-01T10:22:37.314Z,2.08
2019-06-01T10:25:06.534Z,1.80
2019-06-01T10:27:36.701Z,4.22
2019-06-01T10:30:06.455Z,4.37
2019-06-01T10:32:35.695Z,3.47
2019-06-01T10:35:05.265Z,4.50
2019-06-01T10:37:35.315Z,4.80
2019-06-01T10:40:04.826Z,3.92
2019-06-01T10:42:34.432Z,4.60
2019-06-01T10:45:05.377Z,6.90
2019-06-01T10:47:34.275Z,5.33
2019-06-01T10:50:03.255Z,5.33
2019-06-01T10:52:32.054Z,3.37
2019-06-01T10:55:01.068Z,2.22
2019-06-01T10:57:30.049Z,2.55
2019-06-01T10:59:58.886Z,4.33
2019-06-01T11:02:27.806Z,3.05
2019-06-01T11:04:56.776Z,1.72
2019-06-01T11:07:25.718Z,4.28
2019-06-01T11:09:54.658Z,3.52
2019-06-01T11:12:23.466Z,2.42
2019-06-01T11:14:52.280Z,6.12
2019-06-01T11:17:21.192Z,6.37
2019-06-01T11:19:50.310Z,1.72
2019-06-01T11:22:19.666Z,1.57
2019-06-01T11:24:48.522Z,1.70
2019-06-01T11:27:17.441Z,2.47
2019-06-01T11:29:50.978Z,2.00
2019-06-01T11:32:16.997Z,2.05
2019-06-01T11:34:45.838Z,1.82
2019-06-01T11:37:15.818Z,1.00
2019-06-01T11:39:45.207Z,1.75
2019-06-01T11:42:14.218Z,1.42
2019-06-01T11:44:43.150Z,1.40
2019-06-01T11:47:11.981Z,1.90
2019-06-01T11:49:40.959Z,1.55
2019-06-01T11:52:09.890Z,1.10
2019-06-01T11:54:39.152Z,1.55
2019-06-01T11:57:08.279Z,2.62
2019-06-01T11:59:37.367Z,2.40
2019-06-01T12:02:06.307Z,1.67
2019-06-01T12:04:35.766Z,1.45
2019-06-01T12:07:16.855Z,1.92
2019-06-01T12:09:35.764Z,1.37
2019-06-01T12:12:04.793Z,2.50
2019-06-01T12:14:33.795Z,1.22
2019-06-01T12:17:02.637Z,0.90
2019-06-01T12:19:31.566Z,1.37
2019-06-01T12:22:00.881Z,1.42
2019-06-01T12:24:29.929Z,2.45
2019-06-01T12:26:59.126Z,0.98
2019-06-01T12:29:27.986Z,1.70
2019-06-01T12:31:57.240Z,5.25
2019-06-01T12:34:26.301Z,2.55
2019-06-01T12:36:55.262Z,1.30
2019-06-01T12:39:24.165Z,1.87
2019-06-01T12:41:53.217Z,1.27
2019-06-01T12:44:22.230Z,2.70
2019-06-01T12:46:51.186Z,1.37
2019-06-01T12:49:20.056Z,1.37
2019-06-01T12:51:49.141Z,2.83
2019-06-01T12:54:18.209Z,1.57
2019-06-01T12:56:49.278Z,1.95
2019-06-01T12:59:17.843Z,1.37
2019-06-01T13:01:47.235Z,1.10
2019-06-01T13:04:16.417Z,0.88
2019-06-01T13:06:49.442Z,1.22
2019-06-01T13:09:15.862Z,2.80
2019-06-01T13:11:45.172Z,1.22
2019-06-01T13:14:14.221Z,1.45
2019-06-01T13:16:48.167Z,1.20
2019-06-01T13:19:13.714Z,2.60
2019-06-01T13:21:43.329Z,2.40
2019-06-01T13:24:12.331Z,4.80
2019-06-01T13:26:41.739Z,3.95
2019-06-01T13:29:10.786Z,1.40
2019-06-01T13:31:39.952Z,3.20
2019-06-01T13:34:08.763Z,1.30
2019-06-01T13:36:37.665Z,2.70
2019-06-01T13:39:08.300Z,1.17
2019-06-01T13:41:37.367Z,1.50
2019-06-01T13:44:06.382Z,2.90
2019-06-01T13:46:35.331Z,1.62
2019-06-01T13:49:04.315Z,1.82
2019-06-01T13:51:33.240Z,3.87
2019-06-01T13:54:02.121Z,1.67
2019-06-01T13:56:30.979Z,1.52
2019-06-01T13:58:59.995Z,2.87
2019-06-01T14:01:28.918Z,2.52
2019-06-01T14:03:57.865Z,1.80
2019-06-01T14:06:26.679Z,4.03
2019-06-01T14:08:55.506Z,2.50
2019-06-01T14:11:24.337Z,1.25
2019-06-01T14:13:54.196Z,1.87
2019-06-01T14:16:23.265Z,1.77
2019-06-01T14:18:52.180Z,1.72
2019-06-01T14:21:21.073Z,1.60
2019-06-01T14:23:50.148Z,1.47
2019-06-01T14:26:19.490Z,1.70
2019-06-01T14:28:48.521Z,1.60
2019-06-01T14:31:17.485Z,1.30
2019-06-01T14:33:46.564Z,3.00
2019-06-01T14:36:15.853Z,1.80
2019-06-01T14:38:47.680Z,3.17
2019-06-01T14:41:15.326Z,1.35
2019-06-01T14:43:44.289Z,1.37
2019-06-01T14:46:13.135Z,1.30
2019-06-01T14:48:42.079Z,3.40
2019-06-01T14:51:11.063Z,1.77
2019-06-01T14:53:40.036Z,1.40
2019-06-01T14:56:09.207Z,2.17
2019-06-01T14:58:38.141Z,1.15
2019-06-01T15:01:07.033Z,2.27
2019-06-01T15:03:35.855Z,3.15
2019-06-01T15:06:04.863Z,1.85
2019-06-01T15:08:33.855Z,1.17
2019-06-01T15:11:02.750Z,2.10
2019-06-01T15:13:31.695Z,1.30
2019-06-01T15:16:01.935Z,2.75
2019-06-01T15:18:30.942Z,1.40
2019-06-01T15:20:59.807Z,1.57
2019-06-01T15:23:28.711Z,4.42
2019-06-01T15:25:58.484Z,2.30
2019-06-01T15:28:27.558Z,1.57
2019-06-01T15:30:57.100Z,3.35
2019-06-01T15:33:26.337Z,3.33
2019-06-01T15:35:55.939Z,3.02
2019-06-01T15:38:25.187Z,1.50
2019-06-01T15:40:54.167Z,1.75
2019-06-01T15:43:23.111Z,2.33
2019-06-01T15:45:53.207Z,1.67
2019-06-01T15:48:22.242Z,1.52
2019-06-01T15:50:51.567Z,2.30
2019-06-01T15:53:20.530Z,2.60
2019-06-01T15:55:49.534Z,1.45
2019-06-01T15:58:18.672Z,1.85
2019-06-01T16:00:47.666Z,1.67
2019-06-01T16:03:16.596Z,1.55
2019-06-01T16:05:45.540Z,3.33
2019-06-01T16:08:14.488Z,1.52
2019-06-01T16:10:43.461Z,3.70
2019-06-01T16:13:12.444Z,2.77
2019-06-01T16:15:41.282Z,2.10
2019-06-01T16:18:10.275Z,1.42
2019-06-01T16:20:39.265Z,1.40
2019-06-01T16:23:08.246Z,1.55
2019-06-01T16:25:37.170Z,1.80
2019-06-01T16:28:06.170Z,1.98
2019-06-01T16:30:35.132Z,2.87
2019-06-01T16:33:04.894Z,2.20
2019-06-01T16:35:33.898Z,1.90
2019-06-01T16:38:04.093Z,1.70
2019-06-01T16:40:33.473Z,3.25
2019-06-01T16:43:03.575Z,1.50
2019-06-01T16:45:32.706Z,2.22
2019-06-01T16:48:01.778Z,2.55
2019-06-01T16:50:30.984Z,2.45
2019-06-01T16:53:00.213Z,1.65
2019-06-01T16:55:31.600Z,1.80
2019-06-01T16:58:01.215Z,2.80
2019-06-01T17:00:30.225Z,1.77
2019-06-01T17:03:00.512Z,2.10
2019-06-01T17:05:29.558Z,2.27
2019-06-01T17:07:58.757Z,2.05
2019-06-01T17:10:27.880Z,2.67
2019-06-01T17:12:56.942Z,1.75
2019-06-01T17:15:26.030Z,2.35
2019-06-01T17:17:54.877Z,1.52
2019-06-01T17:20:52.594Z,2.83
2019-06-01T17:23:26.855Z,1.70
2019-06-01T17:25:52.634Z,2.40
2019-06-01T17:28:22.305Z,3.12
2019-06-01T17:30:51.963Z,2.70
2019-06-01T17:33:21.179Z,2.45
2019-06-01T17:35:50.617Z,2.37
2019-06-01T17:38:19.949Z,3.33
2019-06-01T17:40:48.941Z,3.83
2019-06-01T17:43:18.228Z,91.35
2019-06-01T17:45:47.199Z,473.82
2019-06-01T17:48:26.007Z,396.93
2019-06-01T17:50:47.006Z,1561.25
2019-06-01T17:53:15.966Z,699.67
2019-06-01T17:55:45.102Z,1837.08
2019-06-01T17:58:14.638Z,634.87
2019-06-01T18:00:43.813Z,1289.00
2019-06-01T18:03:12.808Z,216.17
2019-06-01T18:05:42.012Z,5.70
2019-06-01T18:08:12.372Z,7.65
2019-06-01T18:10:53.239Z,6.53
2019-06-01T18:13:13.275Z,8.40
2019-06-01T18:15:42.478Z,7.83
2019-06-01T18:18:12.853Z,4.12
2019-06-01T18:20:42.515Z,3.87
2019-06-01T18:23:13.228Z,5.45
2019-06-01T18:25:42.519Z,4.17
2019-06-01T18:28:16.102Z,5.15
2019-06-01T18:30:42.232Z,3.25
2019-06-01T18:33:11.313Z,3.72
2019-06-01T18:35:40.789Z,5.08
2019-06-01T18:38:09.899Z,3.65
2019-06-01T18:40:39.207Z,4.08
2019-06-01T18:43:12.133Z,3.83
2019-06-01T18:45:41.434Z,4.80
2019-06-01T18:48:10.751Z,4.80
2019-06-01T18:50:41.381Z,2.95
2019-06-01T18:53:12.138Z,5.58
2019-06-01T18:55:44.140Z,2.75
2019-06-01T18:58:14.996Z,3.05
2019-06-01T19:00:49.631Z,4.20
2019-06-01T19:03:19.440Z,2.75
2019-06-01T19:05:48.378Z,3.95
2019-06-01T19:08:17.350Z,2.83
2019-06-01T19:10:46.998Z,2.98
2019-06-01T19:13:17.057Z,3.40
2019-06-01T19:15:46.027Z,3.05
2019-06-01T19:18:14.993Z,5.60
2019-06-01T19:20:43.957Z,2.80
2019-06-01T19:23:12.899Z,2.85
2019-06-01T19:25:42.083Z,3.05
2019-06-01T19:28:11.070Z,5.03
2019-06-01T19:30:41.375Z,5.33
2019-06-01T19:33:14.269Z,4.12
2019-06-01T19:35:41.499Z,5.55
2019-06-01T19:38:11.456Z,4.75
2019-06-01T19:40:41.344Z,15.80
2019-06-01T19:43:11.520Z,13.98
2019-06-01T19:45:40.956Z,10.13
2019-06-01T19:48:12.184Z,9.25
2019-06-01T19:50:42.149Z,6.87
2019-06-01T19:53:12.474Z,7.83
2019-06-01T19:55:42.124Z,6.55
2019-06-01T19:58:12.171Z,8.33
2019-06-01T20:00:41.645Z,8.50
2019-06-01T20:03:10.965Z,11.55
2019-06-01T20:05:40.477Z,13.53
2019-06-01T20:08:09.936Z,9.05
2019-06-01T20:10:39.515Z,12.00
2019-06-01T20:13:08.561Z,20.17
2019-06-01T20:15:37.928Z,14.87
2019-06-01T20:18:06.942Z,12.07
2019-06-01T20:20:35.782Z,12.78
2019-06-01T20:23:05.043Z,15.63
2019-06-01T20:25:34.182Z,14.23
2019-06-01T20:28:03.101Z,8.38
2019-06-01T20:30:32.153Z,12.30
2019-06-01T20:33:01.161Z,13.65
2019-06-01T20:35:30.403Z,7.62
2019-06-01T20:37:59.301Z,5.20
2019-06-01T20:40:28.170Z,5.30
2019-06-01T20:42:57.012Z,4.58
2019-06-01T20:45:25.973Z,5.78
2019-06-01T20:47:54.862Z,7.10
2019-06-01T20:50:24.268Z,5.78
2019-06-01T20:52:53.262Z,5.33
2019-06-01T20:55:23.273Z,5.70
2019-06-01T20:57:52.590Z,6.22
2019-06-01T21:00:21.755Z,4.40
2019-06-01T21:02:50.749Z,3.27
2019-06-01T21:05:20.014Z,3.75
2019-06-01T21:07:49.251Z,6.00
2019-06-01T21:10:20.327Z,7.40
2019-06-01T21:12:49.540Z,4.53
2019-06-01T21:15:19.281Z,5.65
2019-06-01T21:17:50.146Z,5.40
2019-06-01T21:20:26.800Z,4.95
2019-06-01T21:22:51.104Z,8.70
2019-06-01T21:25:20.852Z,6.17
2019-06-01T21:27:49.849Z,5.85
2019-06-01T21:30:22.324Z,5.97
2019-06-01T21:32:50.230Z,8.63
2019-06-01T21:35:19.483Z,8.20
2019-06-01T21:37:48.648Z,5.12
2019-06-01T21:40:17.688Z,8.15
2019-06-01T21:43:02.754Z,7.95
2019-06-01T21:45:19.522Z,6.22
2019-06-01T21:47:48.426Z,7.67
2019-06-01T21:50:19.820Z,7.42
2019-06-01T21:52:48.865Z,6.17
2019-06-01T21:55:18.119Z,7.10
2019-06-01T21:57:47.164Z,7.45
2019-06-01T22:00:26.691Z,6.50
2019-06-01T22:02:55.815Z,7.83
2019-06-01T22:05:25.376Z,7.12
2019-06-01T22:07:54.377Z,7.60
2019-06-01T22:10:23.801Z,5.85
2019-06-01T22:12:52.633Z,5.75
2019-06-01T22:15:21.596Z,6.47
2019-06-01T22:17:50.653Z,6.33
2019-06-01T22:20:19.955Z,5.47
2019-06-01T22:22:48.881Z,5.53
2019-06-01T22:25:18.258Z,5.15
2019-06-01T22:27:47.516Z,5.67
2019-06-01T22:30:18.308Z,5.80
2019-06-01T22:32:47.306Z,5.85
2019-06-01T22:35:16.309Z,6.70
2019-06-01T22:37:45.148Z,6.22
2019-06-01T22:40:14.266Z,5.22
2019-06-01T22:42:43.179Z,5.75
2019-06-01T22:45:12.275Z,6.40
2019-06-01T22:47:41.270Z,5.72
2019-06-01T22:50:10.494Z,6.10
2019-06-01T22:52:39.304Z,6.28
2019-06-01T22:55:08.613Z,8.40
2019-06-01T22:57:37.525Z,7.22
2019-06-01T23:00:06.815Z,5.62
2019-06-01T23:02:35.755Z,7.10
2019-06-01T23:05:05.018Z,6.75
2019-06-01T23:07:34.034Z,7.80
2019-06-01T23:10:09.913Z,8.30
2019-06-01T23:12:39.117Z,5.47
2019-06-01T23:15:08.583Z,10.30
2019-06-01T23:17:37.925Z,7.72
2019-06-01T23:20:07.165Z,5.90
2019-06-01T23:22:36.345Z,5.72
2019-06-01T23:25:05.914Z,8.98
2019-06-01T23:27:35.083Z,4.75
2019-06-01T23:30:04.926Z,5.67
2019-06-01T23:32:34.015Z,5.72
2019-06-01T23:35:03.199Z,5.75
2019-06-01T23:37:32.911Z,7.28
2019-06-01T23:40:02.206Z,6.30
2019-06-01T23:42:31.308Z,5.17
2019-06-01T23:45:00.440Z,5.28
2019-06-01T23:47:29.633Z,5.42
2019-06-01T23:49:59.024Z,7.05
2019-06-01T23:52:29.606Z,7.78
2019-06-01T23:54:58.871Z,5.30
2019-06-01T23:57:28.061Z,5.30
2019-06-01T23:59:57.127Z,7.45
